Days, Mississippi
Current Conditions -  °F | °C
As of 9:54 AM on Friday 24 Oct 2014 (Local Time) from KMEM Reporting Station
Few Clouds Few Clouds  
Wind Chill: 60°   Ceiling: Unl
Heat Index: 60°   Visibility: 10mi
Dew Point: 47°   Wind: 0mph
Humidity: 62%   Direction: NA
Pressure: 30.15"   Gusts: NA
Location:  34.9155°N, 90.1878°W
Report Text: KMEM 241454Z 00000KT 10SM FEW250 16/08 A3015 RMK AO2 SLP209 T01560083 50004 $
Loading
Personal Weather Stations






























Interactive Weather Map
Tropical Storm Tracking
New forecast layout! Learn more

10-Day Weather Forecast

Advertisements
Track Severe Weather on mobile